Time;durP1;ratioP1;P1;durP2;ratioP2;P2;SDS_P1;SDS_P2;PMS_P1;PMS_P2;Temp;Humidity;BMP_temperature;BMP_pressure;BME280_temperature;BME280_humidity;BME280_pressure;Samples;Min_cycle;Max_cycle;Signal;HPM_P1;HPM_P2
2022/08/26 00:01:36;;;;;;;9.27;7.10;;;;;;;;;;6285059;28;20118;-80
2022/08/26 00:04:38;;;;;;;10.90;7.00;;;;;;;;;;6283176;28;20045;-79
2022/08/26 00:07:40;;;;;;;10.00;7.10;;;;;;;;;;6277478;28;20691;-79
2022/08/26 00:10:44;;;;;;;9.40;6.65;;;;;;;;;;6287713;28;20040;-79
2022/08/26 00:13:45;;;;;;;9.45;6.72;;;;;;;;;;6283114;28;20506;-78
2022/08/26 00:16:50;;;;;;;10.63;6.88;;;;;;;;;;6279187;28;20056;-79
2022/08/26 00:19:56;;;;;;;9.38;6.78;;;;;;;;;;6287982;28;20048;-79
2022/08/26 00:22:58;;;;;;;9.63;6.60;;;;;;;;;;6282148;28;20052;-78
2022/08/26 00:26:00;;;;;;;11.38;7.15;;;;;;;;;;6285815;28;20087;-79
2022/08/26 00:29:02;;;;;;;11.73;7.55;;;;;;;;;;6293063;28;20516;-78
2022/08/26 00:32:05;;;;;;;10.93;7.45;;;;;;;;;;6298426;28;20108;-78
2022/08/26 00:35:10;;;;;;;;;;;;;;;;;;6297876;28;20505;-79
2022/08/26 00:38:12;;;;;;;13.45;7.45;;;;;;;;;;6286405;28;20002;-80
2022/08/26 00:41:16;;;;;;;11.10;7.38;;;;;;;;;;6293639;28;20075;-80
2022/08/26 00:44:18;;;;;;;12.73;7.57;;;;;;;;;;6294586;28;20049;-78
2022/08/26 00:47:32;;;;;;;10.75;7.18;;;;;;;;;;6285411;28;20064;-80
2022/08/26 00:50:41;;;;;;;13.00;6.88;;;;;;;;;;6289549;28;20137;-78
2022/08/26 00:53:49;;;;;;;8.18;6.60;;;;;;;;;;6307670;28;20052;-80
2022/08/26 00:56:56;;;;;;;9.45;6.95;;;;;;;;;;6292609;28;20052;-78
2022/08/26 01:00:05;;;;;;;10.63;7.20;;;;;;;;;;6289645;28;20131;-79
2022/08/26 01:03:08;;;;;;;10.90;7.22;;;;;;;;;;6283618;28;20048;-78
2022/08/26 01:06:13;;;;;;;12.65;7.70;;;;;;;;;;6288813;28;20078;-79
2022/08/26 01:09:16;;;;;;;10.10;7.28;;;;;;;;;;6283504;28;20052;-80
2022/08/26 01:12:19;;;;;;;11.18;7.53;;;;;;;;;;6285719;28;20049;-80
2022/08/26 01:15:29;;;;;;;10.45;7.22;;;;;;;;;;6287958;28;20057;-80
2022/08/26 01:18:34;;;;;;;10.88;7.57;;;;;;;;;;6283863;28;20045;-79
2022/08/26 01:21:44;;;;;;;11.27;7.82;;;;;;;;;;6285404;28;20045;-80
2022/08/26 01:24:47;;;;;;;10.07;7.45;;;;;;;;;;6286573;28;20654;-77
2022/08/26 01:27:49;;;;;;;;;;;;;;;;;;6286815;28;20036;-78
2022/08/26 01:30:53;;;;;;;9.90;6.95;;;;;;;;;;6281464;28;20224;-78
2022/08/26 01:34:15;;;;;;;9.48;7.15;;;;;;;;;;6287713;28;20048;-78
2022/08/26 01:37:21;;;;;;;11.40;7.53;;;;;;;;;;6287776;28;20051;-78
2022/08/26 01:40:31;;;;;;;11.40;7.20;;;;;;;;;;6287553;28;20052;-77
2022/08/26 01:43:37;;;;;;;11.77;7.63;;;;;;;;;;6284861;28;20063;-79
2022/08/26 01:46:39;;;;;;;11.60;7.10;;;;;;;;;;6279549;27;20126;-80
2022/08/26 01:49:42;;;;;;;10.52;7.35;;;;;;;;;;6289258;28;20558;-79
2022/08/26 01:52:47;;;;;;;10.65;6.97;;;;;;;;;;6286175;28;20041;-77
2022/08/26 01:55:58;;;;;;;11.88;8.05;;;;;;;;;;6286353;28;20044;-79
2022/08/26 01:59:04;;;;;;;9.45;7.47;;;;;;;;;;6283749;28;20048;-79
2022/08/26 02:02:06;;;;;;;9.48;7.20;;;;;;;;;;6284125;28;20756;-78
2022/08/26 02:05:10;;;;;;;10.07;7.65;;;;;;;;;;6286576;28;20044;-78
2022/08/26 02:08:13;;;;;;;10.38;7.45;;;;;;;;;;6284402;28;20094;-78
2022/08/26 02:11:25;;;;;;;10.93;7.82;;;;;;;;;;6285610;28;20050;-78
2022/08/26 02:14:31;;;;;;;10.75;7.78;;;;;;;;;;6287535;28;20384;-78
2022/08/26 02:17:44;;;;;;;11.32;7.90;;;;;;;;;;6277797;28;20060;-78
2022/08/26 02:20:45;;;;;;;11.43;7.90;;;;;;;;;;6291708;28;20039;-77
2022/08/26 02:23:52;;;;;;;13.85;8.15;;;;;;;;;;6279321;28;20044;-77
2022/08/26 02:26:57;;;;;;;11.13;7.90;;;;;;;;;;6280354;28;20115;-76
2022/08/26 02:30:10;;;;;;;12.40;7.53;;;;;;;;;;6286802;28;20040;-79
2022/08/26 02:33:12;;;;;;;;;;;;;;;;;;6281750;28;20083;-76
2022/08/26 02:36:24;;;;;;;11.90;7.72;;;;;;;;;;6282549;28;19924;-77
2022/08/26 02:39:29;;;;;;;12.10;7.25;;;;;;;;;;6287127;28;20060;-77
2022/08/26 02:42:31;;;;;;;11.02;7.20;;;;;;;;;;6284560;28;20045;-77
2022/08/26 02:45:33;;;;;;;11.68;7.15;;;;;;;;;;6278445;28;20118;-76
2022/08/26 02:48:35;;;;;;;11.85;8.10;;;;;;;;;;6286107;28;20095;-76
2022/08/26 02:51:37;;;;;;;11.50;7.95;;;;;;;;;;6280897;28;20048;-78
2022/08/26 02:54:40;;;;;;;9.63;7.50;;;;;;;;;;6280110;28;20499;-77
2022/08/26 02:57:42;;;;;;;12.48;8.10;;;;;;;;;;6291720;28;20515;-77
2022/08/26 03:00:45;;;;;;;11.37;7.93;;;;;;;;;;6281868;28;20076;-77
2022/08/26 03:03:55;;;;;;;12.35;8.40;;;;;;;;;;6278348;28;20158;-77
2022/08/26 03:06:57;;;;;;;11.40;8.27;;;;;;;;;;6284912;28;20082;-77
2022/08/26 03:09:59;;;;;;;10.55;7.78;;;;;;;;;;6279758;28;20082;-76
2022/08/26 03:13:01;;;;;;;11.63;8.07;;;;;;;;;;6282215;28;20494;-78
2022/08/26 03:16:07;;;;;;;9.90;7.70;;;;;;;;;;6282976;28;20045;-77
2022/08/26 03:19:09;;;;;;;;;;;;;;;;;;6283726;28;20495;-78
2022/08/26 03:22:10;;;;;;;11.63;7.78;;;;;;;;;;6280933;28;19924;-78
2022/08/26 03:25:15;;;;;;;12.88;8.52;;;;;;;;;;6277123;28;20063;-80
2022/08/26 03:28:17;;;;;;;11.02;8.05;;;;;;;;;;6282887;28;20518;-76
2022/08/26 03:31:20;;;;;;;10.77;8.07;;;;;;;;;;6295281;28;20046;-78
2022/08/26 03:34:25;;;;;;;11.32;7.85;;;;;;;;;;6283945;28;20127;-80
2022/08/26 03:37:26;;;;;;;13.35;8.40;;;;;;;;;;6280837;28;20072;-77
2022/08/26 03:40:29;;;;;;;11.38;8.07;;;;;;;;;;6278516;28;20528;-80
2022/08/26 03:43:30;;;;;;;11.20;8.20;;;;;;;;;;6276451;28;20491;-79
2022/08/26 03:46:33;;;;;;;12.38;8.13;;;;;;;;;;6279841;28;20047;-78
2022/08/26 03:49:35;;;;;;;10.90;8.05;;;;;;;;;;6279603;28;20051;-78
2022/08/26 03:52:37;;;;;;;10.98;7.97;;;;;;;;;;6283150;28;20033;-80
2022/08/26 03:55:44;;;;;;;11.95;7.88;;;;;;;;;;6282598;28;20076;-76
2022/08/26 03:58:46;;;;;;;11.40;7.63;;;;;;;;;;6274127;28;20041;-79
2022/08/26 04:01:51;;;;;;;11.10;7.60;;;;;;;;;;6283431;28;20045;-78
2022/08/26 04:04:53;;;;;;;12.02;8.38;;;;;;;;;;6281696;28;20094;-77
2022/08/26 04:07:54;;;;;;;11.65;8.60;;;;;;;;;;6281247;28;20048;-78
2022/08/26 04:10:56;;;;;;;10.65;8.02;;;;;;;;;;6274681;28;20048;-78
2022/08/26 04:14:00;;;;;;;12.63;9.03;;;;;;;;;;6279444;28;20040;-78
2022/08/26 04:17:03;;;;;;;10.70;8.07;;;;;;;;;;6275391;28;20036;-77
2022/08/26 04:20:06;;;;;;;10.70;7.72;;;;;;;;;;6265224;28;20174;-78
2022/08/26 04:23:10;;;;;;;14.80;8.57;;;;;;;;;;6275834;28;20052;-78
2022/08/26 04:26:11;;;;;;;14.50;9.47;;;;;;;;;;6275953;28;20059;-78
2022/08/26 04:29:16;;;;;;;13.82;8.90;;;;;;;;;;6276360;28;20535;-77
2022/08/26 04:32:18;;;;;;;15.00;8.65;;;;;;;;;;6284008;28;20044;-76
2022/08/26 04:35:20;;;;;;;15.55;9.88;;;;;;;;;;6286395;28;20202;-77
2022/08/26 04:38:26;;;;;;;12.30;8.32;;;;;;;;;;6281274;28;20583;-77
2022/08/26 04:41:30;;;;;;;14.80;9.10;;;;;;;;;;6278416;28;20076;-76
2022/08/26 04:44:34;;;;;;;14.88;9.10;;;;;;;;;;6274374;28;20487;-78
2022/08/26 04:47:36;;;;;;;15.13;9.07;;;;;;;;;;6273043;28;20582;-77
2022/08/26 04:50:38;;;;;;;14.68;9.35;;;;;;;;;;6275953;28;20485;-77
2022/08/26 04:53:44;;;;;;;15.50;10.02;;;;;;;;;;6279108;28;20049;-77
2022/08/26 04:56:48;;;;;;;11.97;8.53;;;;;;;;;;6275383;28;20110;-76
2022/08/26 04:59:49;;;;;;;13.95;9.70;;;;;;;;;;6280618;28;20552;-77
2022/08/26 05:02:51;;;;;;;12.60;8.88;;;;;;;;;;6281701;28;20376;-77
2022/08/26 05:05:53;;;;;;;13.43;9.27;;;;;;;;;;6281237;28;20044;-77
2022/08/26 05:08:55;;;;;;;16.13;9.68;;;;;;;;;;6277305;28;20166;-77
2022/08/26 05:11:58;;;;;;;12.50;8.82;;;;;;;;;;6284918;28;20056;-77
2022/08/26 05:15:00;;;;;;;12.90;8.65;;;;;;;;;;6282816;28;20045;-76
2022/08/26 05:18:06;;;;;;;12.68;8.95;;;;;;;;;;6281174;28;20041;-77
2022/08/26 05:21:16;;;;;;;13.48;9.05;;;;;;;;;;6271058;28;20037;-77
2022/08/26 05:24:18;;;;;;;13.98;9.70;;;;;;;;;;6280198;28;20056;-77
2022/08/26 05:27:20;;;;;;;18.97;11.33;;;;;;;;;;6279205;28;20520;-76
2022/08/26 05:30:22;;;;;;;13.00;8.88;;;;;;;;;;6282437;28;20083;-77
2022/08/26 05:33:23;;;;;;;12.40;8.47;;;;;;;;;;6279135;28;20072;-76
2022/08/26 05:36:27;;;;;;;17.52;9.88;;;;;;;;;;6280632;28;20076;-77
2022/08/26 05:39:31;;;;;;;20.42;10.20;;;;;;;;;;6281406;28;20064;-76
2022/08/26 05:42:33;;;;;;;17.73;10.20;;;;;;;;;;6278850;28;20084;-77
2022/08/26 05:45:45;;;;;;;22.33;11.90;;;;;;;;;;6284581;28;20399;-77
2022/08/26 05:48:47;;;;;;;31.67;15.93;;;;;;;;;;6275078;28;20040;-76
2022/08/26 05:51:49;;;;;;;27.30;13.93;;;;;;;;;;6266544;28;20142;-76
2022/08/26 05:54:51;;;;;;;29.50;13.88;;;;;;;;;;6276256;28;20044;-76
2022/08/26 05:57:52;;;;;;;24.65;15.57;;;;;;;;;;6278306;28;20082;-77
2022/08/26 06:01:02;;;;;;;37.92;20.13;;;;;;;;;;6275521;28;20490;-77
2022/08/26 06:04:06;;;;;;;39.13;20.35;;;;;;;;;;6278558;28;20055;-76
2022/08/26 06:07:07;;;;;;;36.35;20.83;;;;;;;;;;6275151;28;20053;-75
2022/08/26 06:10:13;;;;;;;34.10;20.88;;;;;;;;;;6272808;28;20045;-77
2022/08/26 06:13:33;;;;;;;41.13;24.48;;;;;;;;;;6278814;28;20049;-77
2022/08/26 06:16:38;;;;;;;44.25;25.58;;;;;;;;;;6273200;28;20784;-77
2022/08/26 06:19:41;;;;;;;44.03;25.90;;;;;;;;;;6275028;28;20040;-76
2022/08/26 06:26:03;;;;;;;46.20;27.23;;;;;;;;;;6278457;28;20044;-75
2022/08/26 06:29:06;;;;;;;42.40;26.27;;;;;;;;;;6269144;28;20067;-75
2022/08/26 06:32:08;;;;;;;48.58;28.80;;;;;;;;;;6272822;28;20048;-77
2022/08/26 06:35:10;;;;;;;50.92;31.92;;;;;;;;;;6280583;28;20575;-77
2022/08/26 06:38:13;;;;;;;53.40;30.95;;;;;;;;;;6272446;28;20617;-77
2022/08/26 06:41:16;;;;;;;47.60;31.88;;;;;;;;;;6274592;28;20064;-77
2022/08/26 06:44:19;;;;;;;50.50;30.60;;;;;;;;;;6275527;28;20137;-76
2022/08/26 06:47:21;;;;;;;47.97;29.73;;;;;;;;;;6277983;28;20044;-76
2022/08/26 06:50:23;;;;;;;47.08;29.60;;;;;;;;;;6279432;28;20198;-76
2022/08/26 06:53:26;;;;;;;53.80;32.30;;;;;;;;;;6283817;28;20044;-76
2022/08/26 06:56:36;;;;;;;51.22;30.48;;;;;;;;;;6273502;28;20491;-77
2022/08/26 06:59:38;;;;;;;56.97;30.65;;;;;;;;;;6279597;28;20045;-76
2022/08/26 07:02:40;;;;;;;;;;;;;;;;;;6271075;28;20048;-77
2022/08/26 07:05:42;;;;;;;50.65;30.25;;;;;;;;;;6261410;28;19924;-77
2022/08/26 07:08:48;;;;;;;60.88;34.10;;;;;;;;;;6269537;28;20140;-76
2022/08/26 07:11:51;;;;;;;58.28;32.45;;;;;;;;;;6265229;28;20495;-75
2022/08/26 07:14:53;;;;;;;51.65;31.55;;;;;;;;;;6266952;28;20728;-77
2022/08/26 07:17:56;;;;;;;59.45;34.63;;;;;;;;;;6266428;28;20045;-75
2022/08/26 07:21:00;;;;;;;51.90;31.80;;;;;;;;;;6272802;28;20111;-78
2022/08/26 07:24:03;;;;;;;55.80;32.17;;;;;;;;;;6283770;28;20036;-77
2022/08/26 07:27:12;;;;;;;51.35;31.63;;;;;;;;;;6279595;28;20049;-75
2022/08/26 07:30:14;;;;;;;52.65;32.22;;;;;;;;;;6282359;28;20049;-77
2022/08/26 07:33:16;;;;;;;54.78;32.95;;;;;;;;;;6281823;28;20059;-77
2022/08/26 07:36:20;;;;;;;53.47;30.97;;;;;;;;;;6274563;28;20064;-76
2022/08/26 07:39:23;;;;;;;51.78;31.38;;;;;;;;;;6275308;28;20498;-76
2022/08/26 07:42:25;;;;;;;55.17;32.92;;;;;;;;;;6278009;28;20051;-77
2022/08/26 07:45:27;;;;;;;52.13;34.50;;;;;;;;;;6258281;28;20048;-76
2022/08/26 07:48:30;;;;;;;59.00;33.30;;;;;;;;;;6273874;28;20483;-77
2022/08/26 07:51:34;;;;;;;61.17;35.28;;;;;;;;;;6276245;28;20059;-76
2022/08/26 07:54:37;;;;;;;;;;;;;;;;;;6270034;28;20048;-76
2022/08/26 07:57:39;;;;;;;68.47;37.80;;;;;;;;;;6269728;28;19921;-77
2022/08/26 08:00:41;;;;;;;68.50;38.10;;;;;;;;;;6278091;28;20041;-77
2022/08/26 08:03:45;;;;;;;75.72;38.85;;;;;;;;;;6275334;28;20040;-77
2022/08/26 08:06:51;;;;;;;71.20;38.17;;;;;;;;;;6277265;28;20071;-76
2022/08/26 08:09:53;;;;;;;64.93;34.03;;;;;;;;;;6274679;28;20049;-75
2022/08/26 08:12:57;;;;;;;71.20;37.00;;;;;;;;;;6275250;28;20195;-75
2022/08/26 08:16:01;;;;;;;68.47;37.03;;;;;;;;;;6267899;28;20040;-75
2022/08/26 08:19:05;;;;;;;61.42;32.95;;;;;;;;;;6251144;28;20037;-75
2022/08/26 08:22:08;;;;;;;58.97;32.95;;;;;;;;;;6270700;28;20383;-75
2022/08/26 08:25:20;;;;;;;69.85;36.42;;;;;;;;;;6265471;28;20049;-76
2022/08/26 08:28:23;;;;;;;57.67;31.75;;;;;;;;;;6268278;28;20052;-75
2022/08/26 08:31:29;;;;;;;59.50;32.90;;;;;;;;;;6289246;27;20045;-76
2022/08/26 08:34:50;;;;;;;63.88;34.83;;;;;;;;;;6281583;28;20131;-77
2022/08/26 08:37:53;;;;;;;57.92;33.28;;;;;;;;;;6276539;28;20040;-77
2022/08/26 08:40:55;;;;;;;57.65;33.22;;;;;;;;;;6275864;28;20395;-76
2022/08/26 08:44:00;;;;;;;57.95;32.13;;;;;;;;;;6275308;28;20048;-77
2022/08/26 08:47:11;;;;;;;57.33;31.55;;;;;;;;;;6281197;28;20067;-76
2022/08/26 08:50:28;;;;;;;54.95;32.22;;;;;;;;;;6276399;28;20036;-76
2022/08/26 08:53:35;;;;;;;56.67;32.88;;;;;;;;;;6276268;28;20037;-75
2022/08/26 08:56:44;;;;;;;56.55;31.98;;;;;;;;;;6272969;28;20414;-76
2022/08/26 08:59:57;;;;;;;59.35;32.33;;;;;;;;;;6266558;28;20721;-76
2022/08/26 09:03:07;;;;;;;58.58;32.65;;;;;;;;;;6261389;28;20080;-76
2022/08/26 09:06:15;;;;;;;53.30;31.73;;;;;;;;;;6271664;28;20060;-75
2022/08/26 09:09:28;;;;;;;53.35;31.60;;;;;;;;;;6272952;28;20067;-76
2022/08/26 09:12:32;;;;;;;47.20;28.57;;;;;;;;;;6269767;28;20041;-75
2022/08/26 09:15:55;;;;;;;46.58;28.30;;;;;;;;;;6275040;28;20045;-76
2022/08/26 09:19:23;;;;;;;46.67;28.27;;;;;;;;;;6269681;28;20618;-75
2022/08/26 09:22:31;;;;;;;51.75;28.40;;;;;;;;;;6280928;28;20092;-75
2022/08/26 09:25:44;;;;;;;42.42;26.48;;;;;;;;;;6270532;28;20483;-75
2022/08/26 09:29:00;;;;;;;44.63;25.05;;;;;;;;;;6272274;28;20049;-76
2022/08/26 09:32:14;;;;;;;44.60;25.80;;;;;;;;;;6278278;28;20394;-75
2022/08/26 09:35:30;;;;;;;39.67;23.92;;;;;;;;;;6276962;28;20048;-76
2022/08/26 09:38:33;;;;;;;34.13;22.30;;;;;;;;;;6272938;28;20075;-75
2022/08/26 09:41:35;;;;;;;33.88;22.23;;;;;;;;;;6269231;28;20064;-76
2022/08/26 09:44:59;;;;;;;37.42;23.38;;;;;;;;;;6276013;28;20043;-75
2022/08/26 09:48:01;;;;;;;32.47;21.23;;;;;;;;;;6273384;28;20214;-77
2022/08/26 09:51:21;;;;;;;35.55;22.60;;;;;;;;;;6269425;28;20159;-75
2022/08/26 09:54:25;;;;;;;37.22;22.48;;;;;;;;;;6279138;28;20040;-76
2022/08/26 09:57:35;;;;;;;32.03;21.08;;;;;;;;;;6272720;28;20037;-75
2022/08/26 10:00:40;;;;;;;30.20;22.10;;;;;;;;;;6279316;28;20124;-76
2022/08/26 10:03:43;;;;;;;27.25;21.55;;;;;;;;;;6275320;28;20103;-76
2022/08/26 10:07:08;;;;;;;34.10;21.67;;;;;;;;;;6277279;28;20611;-76
2022/08/26 10:10:19;;;;;;;30.67;22.20;;;;;;;;;;6274723;28;20411;-77
2022/08/26 10:13:26;;;;;;;33.05;23.48;;;;;;;;;;6276173;28;20052;-77
2022/08/26 10:16:51;;;;;;;34.35;22.45;;;;;;;;;;6291988;28;20044;-77
2022/08/26 10:19:58;;;;;;;30.40;20.60;;;;;;;;;;6274184;28;20036;-77
2022/08/26 10:23:13;;;;;;;29.13;21.60;;;;;;;;;;6271983;28;20048;-76
2022/08/26 10:26:24;;;;;;;25.75;19.67;;;;;;;;;;6276545;28;20044;-76
2022/08/26 10:29:36;;;;;;;29.77;21.05;;;;;;;;;;6276321;28;20207;-77
2022/08/26 10:33:08;;;;;;;28.08;19.90;;;;;;;;;;6269540;28;20049;-76
2022/08/26 10:40:22;;;;;;;23.10;18.85;;;;;;;;;;6229296;28;20559;-76
2022/08/26 10:43:38;;;;;;;26.70;19.65;;;;;;;;;;6287125;28;20530;-76
2022/08/26 10:46:46;;;;;;;22.10;18.98;;;;;;;;;;6267737;28;20052;-76
2022/08/26 10:49:52;;;;;;;30.17;21.90;;;;;;;;;;6270221;28;20049;-77
2022/08/26 10:53:03;;;;;;;34.90;23.23;;;;;;;;;;6270491;28;20101;-77
2022/08/26 10:56:28;;;;;;;34.55;25.70;;;;;;;;;;6270956;28;20568;-77
2022/08/26 10:59:46;;;;;;;35.33;24.50;;;;;;;;;;6281474;28;20051;-77
2022/08/26 11:02:52;;;;;;;32.50;22.95;;;;;;;;;;6275616;28;20044;-75
2022/08/26 11:06:27;;;;;;;29.30;22.13;;;;;;;;;;6278384;28;20068;-79
2022/08/26 11:09:44;;;;;;;32.10;23.77;;;;;;;;;;6275283;28;20060;-77
2022/08/26 11:12:50;;;;;;;29.52;22.98;;;;;;;;;;6281324;28;20036;-78
2022/08/26 11:15:53;;;;;;;30.77;22.70;;;;;;;;;;6273829;28;20048;-78
2022/08/26 11:18:55;;;;;;;26.25;20.50;;;;;;;;;;6276098;28;20482;-77
2022/08/26 11:22:04;;;;;;;;;;;;;;;;;;6277887;28;20520;-78
2022/08/26 11:25:11;;;;;;;26.75;19.67;;;;;;;;;;6274936;28;19927;-78
2022/08/26 11:28:35;;;;;;;28.05;19.77;;;;;;;;;;6274366;28;20036;-78
2022/08/26 11:31:36;;;;;;;23.88;19.00;;;;;;;;;;6276579;28;20048;-78
2022/08/26 11:34:58;;;;;;;26.60;18.88;;;;;;;;;;6282040;28;20044;-78
2022/08/26 11:38:02;;;;;;;24.48;18.60;;;;;;;;;;6277237;28;20048;-78
2022/08/26 11:41:08;;;;;;;26.80;20.58;;;;;;;;;;6273943;27;20063;-77
2022/08/26 11:44:17;;;;;;;30.83;21.20;;;;;;;;;;6282827;28;20083;-78
2022/08/26 11:47:28;;;;;;;28.00;20.67;;;;;;;;;;6278461;28;20079;-78
2022/08/26 11:50:30;;;;;;;24.65;20.23;;;;;;;;;;6279872;28;20068;-76
2022/08/26 11:53:36;;;;;;;24.75;19.75;;;;;;;;;;6284541;28;20068;-77
2022/08/26 11:56:40;;;;;;;24.15;18.73;;;;;;;;;;6279663;28;20503;-76
2022/08/26 11:59:42;;;;;;;21.90;16.75;;;;;;;;;;6287472;28;20044;-79
2022/08/26 12:02:44;;;;;;;25.77;20.15;;;;;;;;;;6279830;28;20471;-78
2022/08/26 12:05:51;;;;;;;29.33;22.38;;;;;;;;;;6278241;28;20055;-77
2022/08/26 12:08:57;;;;;;;31.67;23.13;;;;;;;;;;6285284;28;20045;-78
2022/08/26 12:12:11;;;;;;;26.30;21.75;;;;;;;;;;6283670;28;20059;-77
2022/08/26 12:15:20;;;;;;;36.78;26.80;;;;;;;;;;6284490;28;20041;-78
2022/08/26 12:18:30;;;;;;;34.45;25.80;;;;;;;;;;6285487;28;20079;-78
2022/08/26 12:21:32;;;;;;;35.72;27.05;;;;;;;;;;6278299;28;20090;-78
2022/08/26 12:24:46;;;;;;;32.80;25.60;;;;;;;;;;6285055;28;20039;-78
2022/08/26 12:27:47;;;;;;;38.20;24.92;;;;;;;;;;6281774;28;20502;-78
2022/08/26 12:30:59;;;;;;;37.13;25.35;;;;;;;;;;6276004;28;20406;-78
2022/08/26 12:34:04;;;;;;;33.42;24.70;;;;;;;;;;6268228;28;20123;-78
2022/08/26 12:37:10;;;;;;;34.17;24.90;;;;;;;;;;6269445;28;20415;-79
2022/08/26 12:40:38;;;;;;;32.20;24.70;;;;;;;;;;6286352;28;20048;-78
2022/08/26 12:43:41;;;;;;;33.55;23.77;;;;;;;;;;6277981;28;20041;-78
2022/08/26 12:46:43;;;;;;;31.13;23.70;;;;;;;;;;6267071;28;20158;-77
2022/08/26 12:50:10;;;;;;;31.83;24.55;;;;;;;;;;6269604;28;20061;-77
2022/08/26 12:53:16;;;;;;;31.50;23.67;;;;;;;;;;6290140;28;20499;-78
2022/08/26 12:56:29;;;;;;;35.83;22.73;;;;;;;;;;6269200;28;20045;-79
2022/08/26 12:59:31;;;;;;;31.40;22.85;;;;;;;;;;6270937;28;20044;-79
2022/08/26 13:02:34;;;;;;;30.92;23.42;;;;;;;;;;6273329;28;20051;-79
2022/08/26 13:05:36;;;;;;;30.60;22.63;;;;;;;;;;6269888;28;20761;-77
2022/08/26 13:08:43;;;;;;;32.35;23.33;;;;;;;;;;6271316;28;20037;-79
2022/08/26 13:11:44;;;;;;;33.38;24.50;;;;;;;;;;6285193;27;20037;-79
2022/08/26 13:14:46;;;;;;;34.85;24.10;;;;;;;;;;6282786;28;20049;-79
2022/08/26 13:17:48;;;;;;;33.28;24.08;;;;;;;;;;6281792;28;20073;-79
2022/08/26 13:20:50;;;;;;;33.40;23.90;;;;;;;;;;6283787;28;20056;-79
2022/08/26 13:23:52;;;;;;;32.08;23.75;;;;;;;;;;6284440;28;20048;-79
2022/08/26 13:26:54;;;;;;;;;;;;;;;;;;6274454;28;20044;-79
2022/08/26 13:29:57;;;;;;;33.95;24.33;;;;;;;;;;6278208;28;19920;-79
2022/08/26 13:32:59;;;;;;;30.65;22.80;;;;;;;;;;6280908;28;20414;-78
2022/08/26 13:36:03;;;;;;;30.88;24.45;;;;;;;;;;6287498;28;20058;-78
2022/08/26 13:39:05;;;;;;;29.63;24.17;;;;;;;;;;6290650;28;20040;-79
2022/08/26 13:42:07;;;;;;;31.75;23.60;;;;;;;;;;6291845;28;20048;-79
2022/08/26 13:45:10;;;;;;;30.13;24.30;;;;;;;;;;6289867;28;20048;-80
2022/08/26 13:48:12;;;;;;;31.88;24.15;;;;;;;;;;6301440;28;20053;-78
2022/08/26 13:51:15;;;;;;;30.27;23.92;;;;;;;;;;6285677;28;20067;-79
2022/08/26 13:54:17;;;;;;;29.42;23.83;;;;;;;;;;6285066;28;20048;-80
2022/08/26 13:57:18;;;;;;;30.88;24.15;;;;;;;;;;6291547;28;20048;-78
2022/08/26 14:00:20;;;;;;;27.88;23.30;;;;;;;;;;6287149;28;20045;-79
2022/08/26 14:03:23;;;;;;;26.50;21.92;;;;;;;;;;6289420;28;20116;-80
2022/08/26 14:06:25;;;;;;;25.95;20.48;;;;;;;;;;6286754;28;20074;-78
2022/08/26 14:09:27;;;;;;;29.08;21.23;;;;;;;;;;6283724;28;20053;-79
2022/08/26 14:12:28;;;;;;;26.40;21.50;;;;;;;;;;6285495;28;20052;-78
2022/08/26 14:15:34;;;;;;;23.95;20.70;;;;;;;;;;6278507;28;20052;-78
2022/08/26 14:18:39;;;;;;;23.40;19.30;;;;;;;;;;6276588;28;20037;-78
2022/08/26 14:21:44;;;;;;;23.23;19.48;;;;;;;;;;6277897;28;20281;-78
2022/08/26 14:24:46;;;;;;;23.48;18.85;;;;;;;;;;6275373;28;20123;-79
2022/08/26 14:27:49;;;;;;;19.67;17.35;;;;;;;;;;6282192;28;20503;-79
2022/08/26 14:30:53;;;;;;;18.30;16.05;;;;;;;;;;6282287;27;20040;-78
2022/08/26 14:33:58;;;;;;;19.00;15.18;;;;;;;;;;6276566;28;20059;-78
2022/08/26 14:37:00;;;;;;;14.13;12.68;;;;;;;;;;6274804;28;20068;-78
2022/08/26 14:40:09;;;;;;;10.25;9.15;;;;;;;;;;6274582;28;20101;-80
2022/08/26 14:43:14;;;;;;;11.10;8.93;;;;;;;;;;6285196;28;20056;-80
2022/08/26 14:46:17;;;;;;;12.32;11.00;;;;;;;;;;6297327;28;20522;-80
2022/08/26 14:49:20;;;;;;;15.88;12.20;;;;;;;;;;6286439;28;20040;-80
2022/08/26 14:52:22;;;;;;;11.77;10.52;;;;;;;;;;6285381;28;20056;-80
2022/08/26 14:55:25;;;;;;;;;;;;;;;;;;6281669;28;20056;-79
2022/08/26 14:58:27;;;;;;;11.15;9.57;;;;;;;;;;6283928;28;19928;-79
2022/08/26 15:01:35;;;;;;;13.10;11.82;;;;;;;;;;6280248;28;20809;-79
2022/08/26 15:04:39;;;;;;;19.23;15.00;;;;;;;;;;6287305;28;20045;-80
2022/08/26 15:07:43;;;;;;;19.60;17.25;;;;;;;;;;6250811;28;20632;-80
2022/08/26 15:10:48;;;;;;;20.75;16.80;;;;;;;;;;6279622;28;20045;-80
2022/08/26 15:13:50;;;;;;;;;;;;;;;;;;6280103;28;20064;-79
2022/08/26 15:16:54;;;;;;;15.05;13.48;;;;;;;;;;6284995;28;20241;-79
2022/08/26 15:19:56;;;;;;;13.80;12.18;;;;;;;;;;6297085;28;20048;-78
2022/08/26 15:22:58;;;;;;;12.10;9.70;;;;;;;;;;6279874;28;20040;-78
2022/08/26 15:26:09;;;;;;;12.10;10.80;;;;;;;;;;6283459;28;20040;-79
2022/08/26 15:29:11;;;;;;;13.27;11.10;;;;;;;;;;6286734;28;20048;-78
2022/08/26 15:32:13;;;;;;;14.98;12.38;;;;;;;;;;6282086;28;20048;-80
2022/08/26 15:35:15;;;;;;;16.73;13.48;;;;;;;;;;6283749;28;20159;-79
2022/08/26 15:38:16;;;;;;;19.05;15.35;;;;;;;;;;6295072;28;20170;-80
2022/08/26 15:41:18;;;;;;;19.85;17.33;;;;;;;;;;6285092;28;20384;-79
2022/08/26 15:44:21;;;;;;;23.92;18.88;;;;;;;;;;6295845;28;20045;-80
2022/08/26 15:47:23;;;;;;;26.73;21.25;;;;;;;;;;6282563;28;20059;-79
2022/08/26 15:50:24;;;;;;;24.80;21.00;;;;;;;;;;6282077;28;20056;-78
2022/08/26 15:53:28;;;;;;;26.63;21.05;;;;;;;;;;6279727;28;20048;-78
2022/08/26 15:56:34;;;;;;;26.10;20.88;;;;;;;;;;6282503;28;20044;-79
2022/08/26 15:59:36;;;;;;;21.65;19.25;;;;;;;;;;6284119;28;20518;-79
2022/08/26 16:02:37;;;;;;;21.77;18.50;;;;;;;;;;6267530;28;20080;-80
2022/08/26 16:05:42;;;;;;;22.27;17.67;;;;;;;;;;6282429;28;20052;-78
2022/08/26 16:08:44;;;;;;;20.27;17.25;;;;;;;;;;6273969;28;21003;-79
2022/08/26 16:11:45;;;;;;;22.88;17.80;;;;;;;;;;6275350;28;20049;-79
2022/08/26 16:14:50;;;;;;;25.38;17.75;;;;;;;;;;6274621;28;20037;-79
2022/08/26 16:17:53;;;;;;;20.30;18.02;;;;;;;;;;6272152;28;20102;-79
2022/08/26 16:20:55;;;;;;;21.58;17.00;;;;;;;;;;6276022;28;20049;-78
2022/08/26 16:24:14;;;;;;;20.92;17.63;;;;;;;;;;6270908;28;20049;-79
2022/08/26 16:27:16;;;;;;;23.45;18.33;;;;;;;;;;6277432;28;20052;-78
2022/08/26 16:30:20;;;;;;;19.85;17.75;;;;;;;;;;6274270;28;20056;-78
2022/08/26 16:33:21;;;;;;;23.55;19.13;;;;;;;;;;6277749;28;20418;-78
2022/08/26 16:36:30;;;;;;;24.40;20.92;;;;;;;;;;6273897;28;20048;-78
2022/08/26 16:39:32;;;;;;;25.25;20.95;;;;;;;;;;6280610;28;20064;-80
2022/08/26 16:42:40;;;;;;;24.35;20.90;;;;;;;;;;6282114;28;20132;-78
2022/08/26 16:45:42;;;;;;;27.58;21.65;;;;;;;;;;6273392;28;20041;-79
2022/08/26 16:48:44;;;;;;;25.23;21.08;;;;;;;;;;6282776;28;20120;-78
2022/08/26 16:51:46;;;;;;;25.60;20.63;;;;;;;;;;6281221;28;20072;-79
2022/08/26 16:54:48;;;;;;;21.33;19.17;;;;;;;;;;6281868;28;20045;-80
2022/08/26 16:57:50;;;;;;;23.00;18.80;;;;;;;;;;6287176;28;20037;-79
2022/08/26 17:00:52;;;;;;;24.30;18.08;;;;;;;;;;6279553;28;20041;-79
2022/08/26 17:03:54;;;;;;;20.73;18.17;;;;;;;;;;6277336;28;20071;-79
2022/08/26 17:06:56;;;;;;;20.70;17.50;;;;;;;;;;6269320;28;20044;-78
2022/08/26 17:09:58;;;;;;;22.08;16.85;;;;;;;;;;6277213;28;20082;-78
2022/08/26 17:13:00;;;;;;;23.33;17.70;;;;;;;;;;6279348;28;20559;-79
2022/08/26 17:16:06;;;;;;;21.30;16.83;;;;;;;;;;6281658;28;20079;-79
2022/08/26 17:19:09;;;;;;;18.60;15.25;;;;;;;;;;6250229;28;20072;-78
2022/08/26 17:22:13;;;;;;;16.58;14.75;;;;;;;;;;6277285;27;20174;-78
2022/08/26 17:25:21;;;;;;;;;;;;;;;;;;6275550;28;20131;-78
2022/08/26 17:28:23;;;;;;;18.33;14.85;;;;;;;;;;6267287;28;19924;-78
2022/08/26 17:31:26;;;;;;;17.58;14.55;;;;;;;;;;6272713;27;20152;-79
2022/08/26 17:34:29;;;;;;;16.42;14.73;;;;;;;;;;6255797;28;20056;-79
2022/08/26 17:37:33;;;;;;;17.48;13.95;;;;;;;;;;6268997;28;20123;-79
2022/08/26 17:40:38;;;;;;;22.67;15.57;;;;;;;;;;6276016;28;20044;-79
2022/08/26 17:43:43;;;;;;;16.65;14.48;;;;;;;;;;6263115;28;20037;-79
2022/08/26 17:46:46;;;;;;;20.02;15.48;;;;;;;;;;6274503;28;20179;-79
2022/08/26 17:49:49;;;;;;;18.73;15.35;;;;;;;;;;6264952;28;20044;-78
2022/08/26 17:52:53;;;;;;;19.55;14.60;;;;;;;;;;6274780;27;20052;-78
2022/08/26 17:56:00;;;;;;;19.38;14.95;;;;;;;;;;6259675;28;20055;-78
2022/08/26 17:59:05;;;;;;;21.75;15.75;;;;;;;;;;6249460;28;20047;-79
2022/08/26 18:02:12;;;;;;;19.35;16.00;;;;;;;;;;6257032;28;20040;-76
2022/08/26 18:05:16;;;;;;;21.95;15.63;;;;;;;;;;6267570;28;20387;-77
2022/08/26 18:08:18;;;;;;;20.40;16.13;;;;;;;;;;6275718;28;20048;-76
2022/08/26 18:11:22;;;;;;;19.02;15.52;;;;;;;;;;6275199;28;20056;-77
2022/08/26 18:14:24;;;;;;;20.88;15.35;;;;;;;;;;6274028;28;20051;-77
2022/08/26 18:17:25;;;;;;;19.27;14.90;;;;;;;;;;6271498;28;20533;-76